UAL1768 KSFO-KBUR
Flight info
| Callsign | UAL1768 |
|---|---|
| Flight time | 0h 50m |
| Altitude | 35000 |
| Route | N0447F350 WESLA5 KTINA DCT CISKO DCT RDHOT ROKKR3 |
| Aircraft | A319/M-SDE3FGHIRWY/LB1 |
Departure
| Time | 2026-05-05 18:54 |
|---|---|
| Airport | San Francisco International Airport (KSFO) |
Arrival
| Time | 2026-05-05 19:44 |
|---|---|
| Airport | Hollywood Burbank/Bob Hope Airport (KBUR) |
| Time | Latitude | Longitude | Altitude | Speed | Heading |
|---|---|---|---|---|---|
| 2026-05-05 18:28 | 37.61753 | -122.38037 | 22 ft | 0 kts | 280° |
| 2026-05-05 18:45 | 37.61751 | -122.38026 | 16 ft | 4 kts | 280° |
| 2026-05-05 18:45 | 37.61747 | -122.37996 | 16 ft | 2 kts | 280° |
| 2026-05-05 18:45 | 37.61748 | -122.37967 | 23 ft | 4 kts | 231° |
| 2026-05-05 18:45 | 37.61768 | -122.37952 | 23 ft | 4 kts | 182° |
| 2026-05-05 18:46 | 37.61794 | -122.37956 | 23 ft | 4 kts | 163° |
| 2026-05-05 18:46 | 37.61812 | -122.37964 | 23 ft | 0 kts | 160° |
| 2026-05-05 18:48 | 37.61811 | -122.37964 | 23 ft | 1 kts | 160° |
| 2026-05-05 18:48 | 37.61790 | -122.37955 | 23 ft | 5 kts | 163° |
| 2026-05-05 18:49 | 37.61738 | -122.37948 | 23 ft | 10 kts | 178° |
| 2026-05-05 18:49 | 37.61682 | -122.37883 | 22 ft | 14 kts | 109° |
| 2026-05-05 18:49 | 37.61662 | -122.37750 | 22 ft | 17 kts | 97° |
| 2026-05-05 18:49 | 37.61646 | -122.37587 | 22 ft | 20 kts | 97° |
| 2026-05-05 18:50 | 37.61627 | -122.37399 | 22 ft | 22 kts | 98° |
| 2026-05-05 18:50 | 37.61602 | -122.37235 | 24 ft | 20 kts | 113° |
| 2026-05-05 18:50 | 37.61535 | -122.37074 | 22 ft | 22 kts | 117° |
| 2026-05-05 18:50 | 37.61461 | -122.36917 | 22 ft | 18 kts | 133° |
| 2026-05-05 18:51 | 37.61372 | -122.36790 | 22 ft | 21 kts | 127° |
| 2026-05-05 18:51 | 37.61297 | -122.36622 | 22 ft | 23 kts | 116° |
| 2026-05-05 18:51 | 37.61219 | -122.36433 | 22 ft | 25 kts | 117° |
| 2026-05-05 18:51 | 37.61148 | -122.36265 | 22 ft | 13 kts | 118° |
| 2026-05-05 18:52 | 37.61111 | -122.36179 | 22 ft | 13 kts | 118° |
| 2026-05-05 18:52 | 37.61063 | -122.36066 | 23 ft | 16 kts | 117° |
| 2026-05-05 18:52 | 37.61054 | -122.35967 | 22 ft | 12 kts | 74° |
| 2026-05-05 18:52 | 37.61125 | -122.35890 | 24 ft | 16 kts | 16° |
| 2026-05-05 18:53 | 37.61222 | -122.35952 | 22 ft | 21 kts | 297° |
| 2026-05-05 18:53 | 37.61369 | -122.36310 | 23 ft | 82 kts | 297° |
| 2026-05-05 18:53 | 37.61741 | -122.37197 | 24 ft | 144 kts | 298° |
| 2026-05-05 18:53 | 37.62227 | -122.38364 | 574 ft | 149 kts | 297° |
| 2026-05-05 18:54 | 37.62723 | -122.39530 | 1306 ft | 152 kts | 300° |
| 2026-05-05 18:54 | 37.63241 | -122.40717 | 1957 ft | 162 kts | 301° |
| 2026-05-05 18:54 | 37.63830 | -122.42061 | 2410 ft | 188 kts | 300° |
| 2026-05-05 18:54 | 37.64511 | -122.43611 | 2957 ft | 214 kts | 301° |
| 2026-05-05 18:55 | 37.65258 | -122.45314 | 3733 ft | 232 kts | 301° |
| 2026-05-05 18:55 | 37.66050 | -122.47125 | 4842 ft | 238 kts | 301° |
| 2026-05-05 18:55 | 37.66769 | -122.49053 | 5846 ft | 253 kts | 288° |
| 2026-05-05 18:55 | 37.66796 | -122.51357 | 6661 ft | 275 kts | 256° |
| 2026-05-05 18:56 | 37.65816 | -122.53479 | 7596 ft | 290 kts | 225° |
| 2026-05-05 18:56 | 37.64031 | -122.54719 | 8503 ft | 302 kts | 192° |
| 2026-05-05 18:56 | 37.61953 | -122.54655 | 9400 ft | 308 kts | 160° |
| 2026-05-05 18:56 | 37.59985 | -122.53559 | 10319 ft | 311 kts | 150° |
| 2026-05-05 18:57 | 37.58007 | -122.52369 | 11243 ft | 317 kts | 151° |
| 2026-05-05 18:57 | 37.56658 | -122.51598 | 11755 ft | 327 kts | 152° |
| 2026-05-05 18:57 | 37.54492 | -122.50400 | 12148 ft | 352 kts | 153° |
| 2026-05-05 18:57 | 37.52183 | -122.49160 | 12750 ft | 366 kts | 154° |
| 2026-05-05 18:58 | 37.49145 | -122.47257 | 13829 ft | 370 kts | 142° |
| 2026-05-05 18:58 | 37.47125 | -122.45249 | 14570 ft | 370 kts | 132° |
| 2026-05-05 18:58 | 37.45866 | -122.43730 | 15094 ft | 372 kts | 131° |
| 2026-05-05 18:58 | 37.44000 | -122.41446 | 15858 ft | 376 kts | 131° |
| 2026-05-05 18:59 | 37.42139 | -122.39182 | 16620 ft | 380 kts | 131° |
| 2026-05-05 18:59 | 37.40220 | -122.36865 | 17370 ft | 385 kts | 131° |
| 2026-05-05 18:59 | 37.38272 | -122.34516 | 18140 ft | 389 kts | 131° |
| 2026-05-05 18:59 | 37.36305 | -122.32150 | 18854 ft | 392 kts | 131° |
| 2026-05-05 19:00 | 37.34323 | -122.29769 | 19556 ft | 395 kts | 131° |
| 2026-05-05 19:00 | 37.32334 | -122.27367 | 20249 ft | 398 kts | 131° |
| 2026-05-05 19:00 | 37.30324 | -122.24947 | 20938 ft | 401 kts | 131° |
| 2026-05-05 19:00 | 37.28293 | -122.22510 | 21618 ft | 405 kts | 131° |
| 2026-05-05 19:01 | 37.26246 | -122.20060 | 22268 ft | 409 kts | 131° |
| 2026-05-05 19:01 | 37.24180 | -122.17570 | 22934 ft | 412 kts | 131° |
| 2026-05-05 19:01 | 37.22103 | -122.15066 | 23598 ft | 415 kts | 130° |
| 2026-05-05 19:01 | 37.20006 | -122.12551 | 24149 ft | 419 kts | 131° |
| 2026-05-05 19:02 | 37.17915 | -122.10049 | 24718 ft | 420 kts | 130° |
| 2026-05-05 19:02 | 37.15788 | -122.07516 | 25288 ft | 423 kts | 130° |
| 2026-05-05 19:02 | 37.13656 | -122.04970 | 25876 ft | 424 kts | 129° |
| 2026-05-05 19:02 | 37.11514 | -122.02407 | 26446 ft | 425 kts | 129° |
| 2026-05-05 19:03 | 37.09370 | -121.99840 | 26998 ft | 427 kts | 129° |
| 2026-05-05 19:03 | 37.07209 | -121.97258 | 27546 ft | 429 kts | 129° |
| 2026-05-05 19:03 | 37.05038 | -121.94671 | 28084 ft | 432 kts | 129° |
| 2026-05-05 19:03 | 37.02854 | -121.92070 | 28615 ft | 434 kts | 129° |
| 2026-05-05 19:04 | 37.00655 | -121.89457 | 29149 ft | 436 kts | 129° |
| 2026-05-05 19:04 | 36.98475 | -121.86874 | 29687 ft | 438 kts | 128° |
| 2026-05-05 19:04 | 36.96263 | -121.84242 | 30191 ft | 440 kts | 128° |
| 2026-05-05 19:04 | 36.94032 | -121.81601 | 30591 ft | 443 kts | 129° |
| 2026-05-05 19:05 | 36.91786 | -121.78946 | 31024 ft | 445 kts | 128° |
| 2026-05-05 19:05 | 36.89540 | -121.76272 | 31434 ft | 446 kts | 128° |
| 2026-05-05 19:05 | 36.87280 | -121.73595 | 31826 ft | 448 kts | 128° |
| 2026-05-05 19:05 | 36.85007 | -121.70918 | 32246 ft | 449 kts | 128° |
| 2026-05-05 19:06 | 36.82742 | -121.68241 | 32836 ft | 446 kts | 128° |
| 2026-05-05 19:06 | 36.80525 | -121.65617 | 33381 ft | 444 kts | 128° |
| 2026-05-05 19:06 | 36.78273 | -121.62972 | 33952 ft | 442 kts | 128° |
| 2026-05-05 19:06 | 36.76040 | -121.60348 | 34455 ft | 440 kts | 128° |
| 2026-05-05 19:07 | 36.73811 | -121.57726 | 34889 ft | 438 kts | 128° |
| 2026-05-05 19:07 | 36.71599 | -121.55119 | 35079 ft | 436 kts | 128° |
| 2026-05-05 19:07 | 36.67221 | -121.49986 | 35120 ft | 434 kts | 128° |
| 2026-05-05 19:08 | 36.62838 | -121.44834 | 35111 ft | 433 kts | 128° |
| 2026-05-05 19:08 | 36.58439 | -121.39669 | 35111 ft | 434 kts | 128° |
| 2026-05-05 19:09 | 36.54029 | -121.34522 | 35110 ft | 434 kts | 128° |
| 2026-05-05 19:09 | 36.49649 | -121.29416 | 35113 ft | 435 kts | 128° |
| 2026-05-05 19:10 | 36.45234 | -121.24268 | 35130 ft | 435 kts | 128° |
| 2026-05-05 19:10 | 36.40817 | -121.19124 | 35117 ft | 435 kts | 128° |
| 2026-05-05 19:11 | 36.36288 | -121.14098 | 35107 ft | 439 kts | 132° |
| 2026-05-05 19:11 | 36.31579 | -121.09303 | 35104 ft | 439 kts | 132° |
| 2026-05-05 19:12 | 36.26862 | -121.04477 | 35089 ft | 439 kts | 131° |
| 2026-05-05 19:12 | 36.22151 | -120.99658 | 35096 ft | 439 kts | 132° |
| 2026-05-05 19:13 | 36.17440 | -120.94837 | 35117 ft | 439 kts | 132° |
| 2026-05-05 19:13 | 36.12721 | -120.90018 | 35105 ft | 439 kts | 132° |
| 2026-05-05 19:14 | 36.07994 | -120.85215 | 35097 ft | 439 kts | 132° |
| 2026-05-05 19:14 | 36.03311 | -120.80432 | 35097 ft | 440 kts | 132° |
| 2026-05-05 19:15 | 35.98570 | -120.75637 | 35098 ft | 440 kts | 133° |
| 2026-05-05 19:15 | 35.93826 | -120.70821 | 35085 ft | 440 kts | 132° |
| 2026-05-05 19:16 | 35.89117 | -120.66045 | 35086 ft | 441 kts | 133° |
| 2026-05-05 19:16 | 35.84360 | -120.61246 | 35103 ft | 441 kts | 133° |
| 2026-05-05 19:17 | 35.79610 | -120.56432 | 35097 ft | 442 kts | 133° |
| 2026-05-05 19:17 | 35.74833 | -120.51633 | 35096 ft | 443 kts | 133° |
| 2026-05-05 19:18 | 35.70056 | -120.46829 | 35096 ft | 443 kts | 133° |
| 2026-05-05 19:18 | 35.65263 | -120.42038 | 35088 ft | 445 kts | 134° |
| 2026-05-05 19:19 | 35.60489 | -120.37248 | 35090 ft | 446 kts | 134° |
| 2026-05-05 19:19 | 35.55737 | -120.32349 | 35078 ft | 445 kts | 133° |
| 2026-05-05 19:20 | 35.51009 | -120.27407 | 34967 ft | 447 kts | 133° |
| 2026-05-05 19:20 | 35.48632 | -120.24931 | 34726 ft | 448 kts | 133° |
| 2026-05-05 19:20 | 35.46280 | -120.22476 | 34494 ft | 448 kts | 133° |
| 2026-05-05 19:21 | 35.43904 | -120.19994 | 34265 ft | 448 kts | 133° |
| 2026-05-05 19:21 | 35.41522 | -120.17527 | 34037 ft | 448 kts | 133° |
| 2026-05-05 19:21 | 35.39144 | -120.15047 | 33761 ft | 447 kts | 132° |
| 2026-05-05 19:21 | 35.36772 | -120.12564 | 33483 ft | 448 kts | 132° |
| 2026-05-05 19:22 | 35.34396 | -120.10106 | 33052 ft | 447 kts | 134° |
| 2026-05-05 19:22 | 35.32029 | -120.07661 | 32212 ft | 452 kts | 133° |
| 2026-05-05 19:22 | 35.29639 | -120.05194 | 31809 ft | 446 kts | 133° |
| 2026-05-05 19:22 | 35.27283 | -120.02747 | 31270 ft | 443 kts | 133° |
| 2026-05-05 19:23 | 35.24928 | -120.00311 | 30752 ft | 440 kts | 132° |
| 2026-05-05 19:23 | 35.22589 | -119.97897 | 30227 ft | 438 kts | 132° |
| 2026-05-05 19:23 | 35.20267 | -119.95495 | 29637 ft | 435 kts | 132° |
| 2026-05-05 19:23 | 35.17964 | -119.93120 | 29122 ft | 430 kts | 132° |
| 2026-05-05 19:24 | 35.15678 | -119.90764 | 28598 ft | 427 kts | 133° |
| 2026-05-05 19:24 | 35.13442 | -119.88472 | 28088 ft | 424 kts | 133° |
| 2026-05-05 19:24 | 35.11194 | -119.86144 | 27567 ft | 421 kts | 133° |
| 2026-05-05 19:24 | 35.08961 | -119.83836 | 27044 ft | 419 kts | 133° |
| 2026-05-05 19:25 | 35.06732 | -119.81553 | 26563 ft | 416 kts | 134° |
| 2026-05-05 19:25 | 35.04508 | -119.79284 | 26021 ft | 415 kts | 135° |
| 2026-05-05 19:25 | 35.02303 | -119.77022 | 25505 ft | 412 kts | 135° |
| 2026-05-05 19:25 | 35.00139 | -119.74794 | 25015 ft | 410 kts | 135° |
| 2026-05-05 19:26 | 34.97960 | -119.72554 | 24518 ft | 409 kts | 136° |
| 2026-05-05 19:26 | 34.95781 | -119.70319 | 24010 ft | 409 kts | 136° |
| 2026-05-05 19:26 | 34.93603 | -119.68095 | 23478 ft | 409 kts | 137° |
| 2026-05-05 19:26 | 34.91425 | -119.65871 | 22932 ft | 406 kts | 137° |
| 2026-05-05 19:27 | 34.89271 | -119.63665 | 22426 ft | 402 kts | 137° |
| 2026-05-05 19:27 | 34.87213 | -119.61382 | 21922 ft | 396 kts | 129° |
| 2026-05-05 19:27 | 34.85440 | -119.58829 | 21405 ft | 393 kts | 126° |
| 2026-05-05 19:27 | 34.83729 | -119.56252 | 20927 ft | 390 kts | 126° |
| 2026-05-05 19:28 | 34.82040 | -119.53728 | 20444 ft | 388 kts | 127° |
| 2026-05-05 19:28 | 34.80338 | -119.51199 | 19967 ft | 384 kts | 128° |
| 2026-05-05 19:28 | 34.78653 | -119.48694 | 19490 ft | 381 kts | 128° |
| 2026-05-05 19:28 | 34.76978 | -119.46203 | 19025 ft | 377 kts | 128° |
| 2026-05-05 19:29 | 34.75349 | -119.43707 | 18563 ft | 375 kts | 127° |
| 2026-05-05 19:29 | 34.73732 | -119.41221 | 18064 ft | 373 kts | 127° |
| 2026-05-05 19:29 | 34.72126 | -119.38765 | 17593 ft | 370 kts | 127° |
| 2026-05-05 19:29 | 34.70524 | -119.36322 | 17135 ft | 368 kts | 127° |
| 2026-05-05 19:30 | 34.68929 | -119.33897 | 16683 ft | 366 kts | 127° |
| 2026-05-05 19:30 | 34.67362 | -119.31505 | 16238 ft | 364 kts | 127° |
| 2026-05-05 19:30 | 34.65788 | -119.29101 | 15786 ft | 362 kts | 127° |
| 2026-05-05 19:30 | 34.64263 | -119.26692 | 15342 ft | 357 kts | 122° |
| 2026-05-05 19:31 | 34.62969 | -119.24143 | 14908 ft | 352 kts | 119° |
| 2026-05-05 19:31 | 34.61724 | -119.21593 | 14467 ft | 349 kts | 119° |
| 2026-05-05 19:31 | 34.60483 | -119.19077 | 14041 ft | 345 kts | 119° |
| 2026-05-05 19:31 | 34.59258 | -119.16591 | 13587 ft | 341 kts | 119° |
| 2026-05-05 19:32 | 34.58047 | -119.14137 | 13148 ft | 337 kts | 118° |
| 2026-05-05 19:32 | 34.56929 | -119.11668 | 12757 ft | 331 kts | 110° |
| 2026-05-05 19:32 | 34.56114 | -119.09119 | 12350 ft | 326 kts | 107° |
| 2026-05-05 19:32 | 34.55196 | -119.06580 | 11950 ft | 325 kts | 118° |
| 2026-05-05 19:33 | 34.53847 | -119.04428 | 11589 ft | 324 kts | 133° |
| 2026-05-05 19:33 | 34.52116 | -119.02723 | 11403 ft | 316 kts | 143° |
| 2026-05-05 19:33 | 34.50292 | -119.01232 | 11030 ft | 314 kts | 145° |
| 2026-05-05 19:33 | 34.48484 | -118.99772 | 10704 ft | 311 kts | 145° |
| 2026-05-05 19:34 | 34.46696 | -118.98319 | 10377 ft | 307 kts | 145° |
| 2026-05-05 19:34 | 34.44949 | -118.96888 | 9985 ft | 306 kts | 144° |
| 2026-05-05 19:34 | 34.43187 | -118.95455 | 9564 ft | 304 kts | 146° |
| 2026-05-05 19:35 | 34.39681 | -118.92632 | 8954 ft | 300 kts | 146° |
| 2026-05-05 19:35 | 34.37949 | -118.91234 | 8633 ft | 297 kts | 146° |
| 2026-05-05 19:35 | 34.36334 | -118.89694 | 8377 ft | 292 kts | 137° |
| 2026-05-05 19:35 | 34.34879 | -118.88089 | 8230 ft | 280 kts | 137° |
| 2026-05-05 19:36 | 34.33460 | -118.86532 | 8069 ft | 270 kts | 137° |
| 2026-05-05 19:36 | 34.32090 | -118.85026 | 7937 ft | 263 kts | 136° |
| 2026-05-05 19:36 | 34.30738 | -118.83539 | 7743 ft | 261 kts | 136° |
| 2026-05-05 19:36 | 34.29397 | -118.82067 | 7567 ft | 259 kts | 137° |
| 2026-05-05 19:37 | 34.28062 | -118.80612 | 7312 ft | 256 kts | 137° |
| 2026-05-05 19:37 | 34.26831 | -118.79115 | 7081 ft | 252 kts | 124° |
| 2026-05-05 19:37 | 34.26009 | -118.77267 | 6898 ft | 248 kts | 112° |
| 2026-05-05 19:37 | 34.25305 | -118.75334 | 6538 ft | 251 kts | 112° |
| 2026-05-05 19:38 | 34.24597 | -118.73397 | 6135 ft | 252 kts | 112° |
| 2026-05-05 19:38 | 34.23890 | -118.71471 | 5835 ft | 247 kts | 112° |
| 2026-05-05 19:38 | 34.23204 | -118.69601 | 5647 ft | 237 kts | 113° |
| 2026-05-05 19:38 | 34.22561 | -118.67845 | 5483 ft | 226 kts | 113° |
| 2026-05-05 19:39 | 34.21938 | -118.66150 | 5340 ft | 216 kts | 113° |
| 2026-05-05 19:39 | 34.21335 | -118.64512 | 5189 ft | 211 kts | 114° |
| 2026-05-05 19:39 | 34.20745 | -118.62906 | 5036 ft | 206 kts | 114° |
| 2026-05-05 19:39 | 34.20197 | -118.61310 | 4786 ft | 207 kts | 104° |
| 2026-05-05 19:40 | 34.20006 | -118.59575 | 4411 ft | 212 kts | 95° |
| 2026-05-05 19:40 | 34.19893 | -118.57814 | 4094 ft | 210 kts | 92° |
| 2026-05-05 19:40 | 34.19863 | -118.56068 | 3804 ft | 206 kts | 89° |
| 2026-05-05 19:40 | 34.19864 | -118.54359 | 3537 ft | 201 kts | 89° |
| 2026-05-05 19:41 | 34.19863 | -118.52697 | 3286 ft | 195 kts | 89° |
| 2026-05-05 19:41 | 34.19858 | -118.51062 | 3033 ft | 194 kts | 90° |
| 2026-05-05 19:41 | 34.19852 | -118.49459 | 2760 ft | 185 kts | 94° |
| 2026-05-05 19:41 | 34.19849 | -118.47987 | 2528 ft | 162 kts | 93° |
| 2026-05-05 19:42 | 34.19845 | -118.46708 | 2321 ft | 144 kts | 95° |
| 2026-05-05 19:42 | 34.19838 | -118.45528 | 2137 ft | 137 kts | 94° |
| 2026-05-05 19:42 | 34.19832 | -118.44413 | 1974 ft | 133 kts | 95° |
| 2026-05-05 19:42 | 34.19826 | -118.43294 | 1797 ft | 135 kts | 97° |
| 2026-05-05 19:43 | 34.19820 | -118.42158 | 1635 ft | 134 kts | 96° |
| 2026-05-05 19:43 | 34.19815 | -118.41044 | 1454 ft | 132 kts | 94° |
| 2026-05-05 19:43 | 34.19811 | -118.39943 | 1250 ft | 130 kts | 92° |
| 2026-05-05 19:43 | 34.19809 | -118.38855 | 1083 ft | 129 kts | 93° |
| 2026-05-05 19:44 | 34.19805 | -118.38136 | 978 ft | 129 kts | 92° |
| 2026-05-05 19:44 | 34.19788 | -118.36697 | 748 ft | 129 kts | 93° |
| 2026-05-05 19:44 | 34.19779 | -118.36008 | 703 ft | 104 kts | 90° |
| 2026-05-05 19:44 | 34.19771 | -118.35464 | 697 ft | 14 kts | 91° |
| 2026-05-05 19:45 | 34.19770 | -118.35381 | 689 ft | 16 kts | 91° |
| 2026-05-05 19:45 | 34.19775 | -118.35274 | 692 ft | 12 kts | 67° |
| 2026-05-05 19:45 | 34.19835 | -118.35219 | 693 ft | 12 kts | 10° |
| 2026-05-05 19:45 | 34.19881 | -118.35278 | 697 ft | 11 kts | 271° |
| 2026-05-05 19:46 | 34.19881 | -118.35382 | 692 ft | 14 kts | 270° |
| 2026-05-05 19:46 | 34.19882 | -118.35479 | 700 ft | 10 kts | 270° |
| 2026-05-05 19:46 | 34.19830 | -118.35526 | 697 ft | 13 kts | 170° |
| 2026-05-05 19:46 | 34.19754 | -118.35545 | 698 ft | 11 kts | 202° |
| 2026-05-05 19:47 | 34.19682 | -118.35571 | 691 ft | 14 kts | 184° |
| 2026-05-05 19:47 | 34.19608 | -118.35556 | 689 ft | 7 kts | 165° |
| 2026-05-05 19:47 | 34.19562 | -118.35543 | 689 ft | 9 kts | 167° |
| 2026-05-05 19:47 | 34.19525 | -118.35528 | 691 ft | 5 kts | 136° |
| 2026-05-05 19:48 | 34.19536 | -118.35500 | 692 ft | 3 kts | 60° |
| 2026-05-05 19:48 | 34.19540 | -118.35490 | 688 ft | 1 kts | 63° |
| 2026-05-05 19:48 | 34.19542 | -118.35486 | 688 ft | 1 kts | 61° |
| 2026-05-05 19:48 | 34.19543 | -118.35483 | 689 ft | 0 kts | 61° |